Time;durP1;ratioP1;P1;durP2;ratioP2;P2;SDS_P1;SDS_P2;PMS_P1;PMS_P2;Temp;Humidity;BMP_temperature;BMP_pressure;BME280_temperature;BME280_humidity;BME280_pressure;Samples;Min_cycle;Max_cycle;Signal;HPM_P1;HPM_P2
2021/10/13 00:01:50;;;;;;;15.50;8.70;;;;;;;19.94;49.14;100446.06;4988271;28;20100;-63
2021/10/13 00:04:17;;;;;;;16.05;8.07;;;;;;;19.78;49.18;100437.34;4990685;28;20047;-65
2021/10/13 00:06:44;;;;;;;12.27;7.55;;;;;;;19.63;48.59;100401.97;4990762;28;20082;-64
2021/10/13 00:09:11;;;;;;;14.18;7.00;;;;;;;19.86;48.11;100425.13;4988932;28;20129;-70
2021/10/13 00:11:39;;;;;;;17.80;9.23;;;;;;;19.99;48.76;100454.34;4983037;28;20069;-66
2021/10/13 00:14:06;;;;;;;16.45;8.48;;;;;;;19.86;49.09;100458.28;4990702;28;20129;-69
2021/10/13 00:16:34;;;;;;;15.23;8.90;;;;;;;19.77;49.43;100466.06;4979698;28;20059;-67
2021/10/13 00:19:01;;;;;;;15.27;8.68;;;;;;;19.64;49.72;100456.63;4988746;28;20498;-75
2021/10/13 00:21:28;;;;;;;12.80;7.90;;;;;;;19.53;50.04;100467.50;4989271;28;20486;-63
2021/10/13 00:23:54;;;;;;;20.48;8.30;;;;;;;19.27;50.23;100455.50;4990407;28;20129;-63
2021/10/13 00:26:21;;;;;;;15.40;8.68;;;;;;;19.26;50.51;100470.84;4989512;28;20080;-65
2021/10/13 00:28:48;;;;;;;13.85;8.52;;;;;;;19.17;50.37;100477.34;4988585;28;20129;-65
2021/10/13 00:31:15;;;;;;;17.83;10.05;;;;;;;18.96;50.66;100453.81;4987558;28;20129;-65
2021/10/13 00:33:42;;;;;;;22.25;9.65;;;;;;;18.94;50.53;100473.16;4992901;28;20054;-65
2021/10/13 00:36:09;;;;;;;16.02;9.70;;;;;;;18.84;51.16;100474.34;4991120;28;20153;-64
2021/10/13 00:38:36;;;;;;;11.05;5.72;;;;;;;18.82;49.72;100468.19;4988621;28;20128;-72
2021/10/13 00:41:02;;;;;;;10.75;5.50;;;;;;;18.77;48.89;100444.91;4989515;28;20049;-65
2021/10/13 00:43:29;;;;;;;13.48;4.75;;;;;;;18.70;47.74;100432.09;4990604;28;20101;-64
2021/10/13 00:45:56;;;;;;;9.85;5.32;;;;;;;19.10;46.54;100457.25;4990981;28;20080;-73
2021/10/13 00:48:23;;;;;;;11.75;5.93;;;;;;;19.10;46.12;100445.94;4991408;28;20046;-72
2021/10/13 00:50:50;;;;;;;9.02;4.82;;;;;;;19.35;45.51;100460.28;4986993;28;20476;-72
2021/10/13 00:53:17;;;;;;;9.60;5.13;;;;;;;19.38;45.37;100442.59;4991082;28;20086;-71
2021/10/13 00:55:45;;;;;;;9.27;5.80;;;;;;;19.45;44.64;100448.56;4985584;28;20081;-68
2021/10/13 00:58:11;;;;;;;11.60;5.30;;;;;;;19.54;44.72;100466.31;4993624;28;20070;-70
2021/10/13 01:00:44;;;;;;;11.60;5.53;;;;;;;19.50;44.68;100465.34;4992979;28;20141;-70
2021/10/13 01:03:33;;;;;;;9.05;4.85;;;;;;;19.47;44.60;100460.38;4986818;28;20050;-70
2021/10/13 01:06:19;;;;;;;8.15;5.65;;;;;;;19.32;44.72;100461.00;4992385;28;20130;-69
2021/10/13 01:09:08;;;;;;;7.50;4.20;;;;;;;19.17;44.92;100468.88;4993438;28;20505;-78
2021/10/13 01:11:39;;;;;;;;;;;;;;;19.00;45.42;100468.94;4991781;28;20133;-67
2021/10/13 01:14:27;;;;;;;12.50;4.97;;;;;;;19.06;46.04;100470.44;4984079;28;20409;-66
2021/10/13 01:17:34;;;;;;;4.68;2.88;;;;;;;18.73;47.61;100469.38;4982381;28;20457;-66
2021/10/13 01:20:29;;;;;;;9.55;5.28;;;;;;;18.58;48.65;100482.03;4957751;28;20074;-67
2021/10/13 01:23:17;;;;;;;7.90;4.93;;;;;;;18.47;48.19;100479.56;4993557;28;20089;-67
2021/10/13 01:25:49;;;;;;;10.15;5.00;;;;;;;18.54;47.89;100458.44;4991279;28;20448;-67
2021/10/13 01:28:23;;;;;;;8.95;5.05;;;;;;;18.59;47.68;100466.72;4989648;28;20056;-66
2021/10/13 01:30:59;;;;;;;10.25;5.20;;;;;;;18.62;47.53;100471.72;4985012;28;20047;-68
2021/10/13 01:33:35;;;;;;;14.90;5.65;;;;;;;18.56;47.31;100464.56;4991859;28;20050;-68
2021/10/13 01:36:05;;;;;;;9.30;4.95;;;;;;;18.64;47.56;100481.53;4987586;28;20084;-65
2021/10/13 01:38:41;;;;;;;13.85;4.85;;;;;;;18.61;46.99;100458.75;4985029;28;20134;-65
2021/10/13 01:41:10;;;;;;;11.98;5.03;;;;;;;18.75;46.71;100472.72;4985459;28;20126;-65
2021/10/13 01:43:42;;;;;;;11.13;5.55;;;;;;;18.82;46.77;100473.03;4992975;28;20133;-66
2021/10/13 01:46:09;;;;;;;10.50;5.15;;;;;;;18.74;46.87;100469.06;4981170;28;20133;-66
2021/10/13 01:48:38;;;;;;;13.20;6.70;;;;;;;18.59;46.82;100453.41;4993008;28;20074;-66
2021/10/13 01:51:06;;;;;;;10.93;4.60;;;;;;;18.44;46.63;100442.66;4991996;28;20074;-67
2021/10/13 01:53:34;;;;;;;7.28;3.42;;;;;;;18.51;46.35;100482.56;4992549;28;20073;-65
2021/10/13 01:56:03;;;;;;;8.18;3.78;;;;;;;18.40;45.93;100469.94;4988994;28;20124;-66
2021/10/13 01:58:31;;;;;;;6.63;4.22;;;;;;;18.41;45.41;100465.94;4991564;28;20148;-69
2021/10/13 02:01:01;;;;;;;10.88;4.78;;;;;;;18.38;45.00;100455.31;4987119;28;20145;-68
2021/10/13 02:03:28;;;;;;;;;;;;;;;18.55;44.20;100468.56;4992574;28;20054;-68
2021/10/13 02:05:59;;;;;;;5.38;3.13;;;;;;;18.62;42.67;100461.22;4993323;28;19976;-68
2021/10/13 02:08:28;;;;;;;7.90;2.35;;;;;;;18.76;42.62;100463.06;4991188;28;20546;-68
2021/10/13 02:11:00;;;;;;;6.03;3.22;;;;;;;18.85;41.52;100461.88;4990161;28;20042;-69
2021/10/13 02:13:31;;;;;;;7.30;3.08;;;;;;;18.86;41.17;100451.38;4992351;28;20149;-66
2021/10/13 02:16:00;;;;;;;5.53;3.22;;;;;;;19.02;40.56;100454.47;4982431;28;20106;-66
2021/10/13 02:18:29;;;;;;;4.07;2.85;;;;;;;19.03;39.71;100451.28;4990261;28;20057;-64
2021/10/13 02:20:59;;;;;;;6.60;2.58;;;;;;;19.09;39.12;100446.28;4994207;28;20097;-65
2021/10/13 02:23:31;;;;;;;7.23;2.23;;;;;;;19.19;39.04;100448.72;4990036;28;20043;-65
2021/10/13 02:26:09;;;;;;;8.45;3.47;;;;;;;19.25;39.05;100440.84;4986256;28;20886;-65
2021/10/13 02:28:42;;;;;;;9.15;3.53;;;;;;;19.36;38.96;100453.47;4983058;28;20130;-66
2021/10/13 02:31:10;;;;;;;4.88;2.78;;;;;;;19.43;39.07;100456.59;4991033;28;20074;-66
2021/10/13 02:33:37;;;;;;;5.30;2.67;;;;;;;19.46;38.64;100449.41;4993557;28;20445;-67
2021/10/13 02:36:04;;;;;;;4.22;2.55;;;;;;;19.47;38.85;100445.41;4993337;28;20504;-66
2021/10/13 02:38:32;;;;;;;3.83;2.63;;;;;;;19.50;38.63;100456.88;4993141;28;20133;-67
2021/10/13 02:40:59;;;;;;;8.63;3.13;;;;;;;19.41;38.28;100451.25;4985022;28;20052;-66
2021/10/13 02:43:26;;;;;;;2.88;1.52;;;;;;;19.30;37.71;100464.16;4989944;28;20130;-66
2021/10/13 02:46:27;;;;;;;4.20;1.95;;;;;;;19.23;37.17;100446.03;4981248;28;20531;-66
2021/10/13 02:49:05;;;;;;;1.30;1.02;;;;;;;19.20;36.13;100429.72;4979925;28;20125;-67
2021/10/13 02:51:49;;;;;;;2.17;1.17;;;;;;;19.15;35.41;100419.44;4992539;28;20086;-66
2021/10/13 02:54:20;;;;;;;2.53;1.67;;;;;;;19.29;34.84;100441.84;4984300;28;20052;-66
2021/10/13 02:56:51;;;;;;;3.97;1.60;;;;;;;19.32;34.50;100427.00;4988744;28;20141;-67
2021/10/13 02:59:41;;;;;;;2.78;1.90;;;;;;;19.25;34.08;100449.34;4991341;28;20046;-66
2021/10/13 03:02:20;;;;;;;1.27;1.00;;;;;;;19.02;34.28;100424.16;4988447;28;20074;-68
2021/10/13 03:04:51;;;;;;;2.22;0.90;;;;;;;19.10;34.60;100440.25;4990179;28;20046;-62
2021/10/13 03:07:22;;;;;;;4.82;2.00;;;;;;;19.25;33.99;100446.50;4979145;28;20500;-62
2021/10/13 03:09:55;;;;;;;6.55;1.65;;;;;;;19.23;33.89;100434.72;4982980;28;20137;-62
2021/10/13 03:12:26;;;;;;;3.72;1.77;;;;;;;19.26;34.04;100436.88;4981881;28;20062;-62
2021/10/13 03:14:56;;;;;;;1.83;1.23;;;;;;;19.20;33.80;100441.88;4984651;28;20157;-67
2021/10/13 03:17:24;;;;;;;4.63;1.38;;;;;;;19.25;33.85;100441.69;4983573;28;20130;-65
2021/10/13 03:19:54;;;;;;;4.00;1.40;;;;;;;19.23;33.29;100444.03;4989624;28;20078;-69
2021/10/13 03:22:21;;;;;;;;;;;;;;;19.02;33.56;100446.81;4990846;28;20581;-69
2021/10/13 03:24:48;;;;;;;3.60;1.40;;;;;;;19.11;33.17;100452.41;4989615;28;20020;-69
2021/10/13 03:27:15;;;;;;;7.82;1.83;;;;;;;18.99;32.31;100436.16;4990826;28;20141;-71
2021/10/13 03:29:42;;;;;;;3.85;1.27;;;;;;;19.15;32.49;100440.09;4990115;28;20465;-73
2021/10/13 03:32:09;;;;;;;5.28;1.30;;;;;;;19.18;32.22;100449.91;4993419;28;20061;-71
2021/10/13 03:34:40;;;;;;;2.55;1.27;;;;;;;19.23;32.19;100448.88;4990958;28;20081;-71
2021/10/13 03:37:07;;;;;;;3.88;1.42;;;;;;;19.15;31.82;100434.44;5001911;28;20049;-71
2021/10/13 03:39:34;;;;;;;4.85;1.30;;;;;;;19.25;32.26;100455.00;4995347;28;22153;-65
2021/10/13 03:42:01;;;;;;;2.42;1.52;;;;;;;19.07;32.27;100438.13;4989479;28;20200;-66
2021/10/13 03:44:28;;;;;;;4.10;1.17;;;;;;;19.22;32.23;100453.72;4990910;28;20054;-64
2021/10/13 03:46:55;;;;;;;4.95;1.20;;;;;;;19.10;32.64;100440.25;4990388;28;20157;-63
2021/10/13 03:49:23;;;;;;;1.63;1.10;;;;;;;18.91;32.49;100434.22;4988833;28;20145;-63
2021/10/13 03:51:49;;;;;;;3.38;1.20;;;;;;;19.01;32.68;100438.66;4988535;28;20556;-62
2021/10/13 03:54:16;;;;;;;2.80;1.40;;;;;;;19.03;32.39;100451.28;4991672;28;20148;-62
2021/10/13 03:56:43;;;;;;;3.42;1.40;;;;;;;19.02;32.23;100458.13;4990888;28;20133;-62
2021/10/13 03:59:10;;;;;;;2.70;1.40;;;;;;;18.83;32.46;100427.41;4983723;28;20141;-62
2021/10/13 04:01:38;;;;;;;1.83;1.20;;;;;;;18.94;32.50;100451.34;4987030;28;20073;-65
2021/10/13 04:04:05;;;;;;;8.95;2.45;;;;;;;18.86;32.51;100438.03;4990293;28;20086;-65
2021/10/13 04:06:32;;;;;;;3.92;1.05;;;;;;;19.04;32.10;100460.59;4990113;28;20077;-62
2021/10/13 04:08:58;;;;;;;3.40;1.20;;;;;;;18.99;32.25;100460.81;4991191;28;20141;-64
2021/10/13 04:11:25;;;;;;;3.13;1.70;;;;;;;18.95;32.52;100471.97;4989842;28;20089;-65
2021/10/13 04:13:52;;;;;;;2.30;1.35;;;;;;;18.87;32.50;100467.16;4992937;28;20153;-64
2021/10/13 04:16:19;;;;;;;3.22;1.27;;;;;;;18.76;32.20;100451.75;4991389;28;20141;-65
2021/10/13 04:18:46;;;;;;;4.43;1.60;;;;;;;18.93;31.72;100474.31;4992166;28;20043;-68
2021/10/13 04:21:13;;;;;;;3.03;1.63;;;;;;;18.93;31.75;100471.47;4985237;28;20133;-68
2021/10/13 04:23:40;;;;;;;4.57;1.45;;;;;;;18.74;31.76;100446.44;4995548;28;20142;-62
2021/10/13 04:26:07;;;;;;;1.77;0.98;;;;;;;18.77;31.79;100464.72;4989030;28;20129;-66
2021/10/13 04:28:34;;;;;;;1.55;1.13;;;;;;;18.77;32.00;100464.72;4994652;28;20520;-64
2021/10/13 04:31:00;;;;;;;3.83;1.58;;;;;;;18.64;31.68;100456.09;4990932;28;20133;-65
2021/10/13 04:33:27;;;;;;;6.50;1.40;;;;;;;18.65;31.98;100456.91;4984702;28;20486;-64
2021/10/13 04:35:54;;;;;;;4.18;0.95;;;;;;;18.73;31.92;100467.38;4990235;28;20145;-65
2021/10/13 04:38:21;;;;;;;3.35;1.38;;;;;;;18.67;31.77;100465.91;4990103;28;20093;-67
2021/10/13 04:40:48;;;;;;;4.10;1.30;;;;;;;18.74;32.00;100468.25;4992384;28;20046;-73
2021/10/13 04:43:15;;;;;;;3.55;1.75;;;;;;;18.69;31.98;100472.84;4989736;28;20142;-65
2021/10/13 04:45:41;;;;;;;1.75;1.05;;;;;;;18.54;31.50;100475.41;4992210;28;20134;-65
2021/10/13 04:48:08;;;;;;;6.00;1.40;;;;;;;18.48;31.62;100458.59;4994933;28;20125;-65
2021/10/13 04:50:35;;;;;;;6.68;1.10;;;;;;;18.48;31.71;100471.91;4986885;28;20050;-66
2021/10/13 04:53:03;;;;;;;3.10;1.10;;;;;;;18.62;31.72;100474.53;4992232;28;20054;-77
2021/10/13 04:55:30;;;;;;;1.55;1.10;;;;;;;18.56;31.24;100485.19;4987461;28;20141;-63
2021/10/13 04:57:57;;;;;;;5.22;0.95;;;;;;;18.57;31.34;100480.41;4994160;28;20474;-64
2021/10/13 05:00:25;;;;;;;2.05;1.10;;;;;;;18.53;31.18;100480.25;4993270;28;20049;-63
2021/10/13 05:02:53;;;;;;;1.65;0.93;;;;;;;18.54;31.09;100483.91;4990408;28;20054;-63
2021/10/13 05:05:20;;;;;;;0.80;0.65;;;;;;;18.53;31.08;100485.91;4994610;28;20050;-60
2021/10/13 05:07:48;;;;;;;2.60;1.10;;;;;;;18.58;31.17;100484.88;4993364;28;20073;-62
2021/10/13 05:10:15;;;;;;;1.58;1.08;;;;;;;18.53;31.13;100476.56;4988363;28;20074;-60
2021/10/13 05:12:42;;;;;;;2.25;1.23;;;;;;;18.55;30.93;100480.72;4993755;28;20046;-60
2021/10/13 05:15:09;;;;;;;2.58;1.02;;;;;;;18.48;30.98;100484.06;4994948;28;20066;-61
2021/10/13 05:17:36;;;;;;;3.42;0.85;;;;;;;18.34;31.12;100465.63;4991778;28;20158;-60
2021/10/13 05:20:04;;;;;;;1.08;0.90;;;;;;;18.32;30.97;100459.47;4988816;28;20070;-63
2021/10/13 05:22:30;;;;;;;1.60;0.80;;;;;;;18.39;30.66;100465.44;4991658;28;20129;-60
2021/10/13 05:24:57;;;;;;;4.28;1.90;;;;;;;18.50;30.57;100472.44;4990554;28;20158;-64
2021/10/13 05:27:24;;;;;;;5.25;1.00;;;;;;;18.55;30.42;100477.06;4995180;28;20078;-62
2021/10/13 05:29:51;;;;;;;1.15;0.73;;;;;;;18.58;30.82;100493.34;4987729;28;20081;-61
2021/10/13 05:32:18;;;;;;;4.50;0.90;;;;;;;18.49;30.60;100482.06;4991727;28;20125;-65
2021/10/13 05:34:44;;;;;;;2.72;1.50;;;;;;;18.61;30.37;100490.69;4983610;28;20046;-62
2021/10/13 05:37:11;;;;;;;0.93;0.75;;;;;;;18.49;30.92;100501.84;4989003;28;20134;-63
2021/10/13 05:39:38;;;;;;;2.13;1.13;;;;;;;18.36;30.97;100480.25;4988304;28;20104;-65
2021/10/13 05:42:05;;;;;;;1.67;1.20;;;;;;;18.53;30.56;100502.88;4990997;28;20141;-61
2021/10/13 05:44:32;;;;;;;1.88;1.02;;;;;;;18.45;30.77;100500.88;4993095;28;20141;-62
2021/10/13 05:46:59;;;;;;;3.60;1.30;;;;;;;18.45;30.63;100490.38;4989475;28;20050;-61
2021/10/13 05:49:26;;;;;;;2.65;1.45;;;;;;;18.41;30.74;100499.88;4990219;28;20058;-62
2021/10/13 05:51:53;;;;;;;1.38;0.90;;;;;;;18.23;30.69;100477.28;4989959;28;20042;-63
2021/10/13 05:54:19;;;;;;;0.52;0.52;;;;;;;18.31;31.06;100506.69;4992262;28;20134;-65
2021/10/13 05:56:50;;;;;;;5.60;1.52;;;;;;;18.43;30.63;100504.03;4984699;28;20050;-65
2021/10/13 05:59:18;;;;;;;2.38;1.23;;;;;;;18.27;30.58;100468.13;4993416;28;20077;-62
2021/10/13 06:01:45;;;;;;;2.08;1.15;;;;;;;18.09;30.79;100454.03;4984159;28;20115;-62
2021/10/13 06:04:12;;;;;;;2.45;1.20;;;;;;;18.29;30.68;100488.41;4981581;28;20057;-62
2021/10/13 06:06:39;;;;;;;2.65;1.02;;;;;;;18.19;30.68;100479.13;4991232;28;20042;-62
2021/10/13 06:09:06;;;;;;;4.22;1.58;;;;;;;18.36;30.41;100500.03;4992254;28;20130;-62
2021/10/13 06:11:32;;;;;;;1.83;1.10;;;;;;;18.34;30.15;100483.41;4991807;28;20133;-62
2021/10/13 06:14:00;;;;;;;2.65;1.00;;;;;;;18.12;30.31;100461.84;4980518;28;20074;-63
2021/10/13 06:16:27;;;;;;;3.25;1.20;;;;;;;18.38;30.25;100504.19;4987524;28;20058;-62
2021/10/13 06:18:54;;;;;;;3.28;1.02;;;;;;;18.44;29.88;100504.88;4980804;28;20434;-62
2021/10/13 06:21:21;;;;;;;2.22;1.25;;;;;;;18.42;30.12;100495.88;4981570;28;20153;-62
2021/10/13 06:23:48;;;;;;;2.75;1.02;;;;;;;18.32;30.27;100507.53;4986553;28;20140;-62
2021/10/13 06:26:16;;;;;;;1.90;0.98;;;;;;;18.15;30.01;100483.78;4990310;28;20487;-66
2021/10/13 06:28:43;;;;;;;7.63;1.65;;;;;;;18.32;30.17;100508.34;4991045;28;20418;-62
2021/10/13 06:31:10;;;;;;;3.78;1.25;;;;;;;18.28;30.16;100506.53;4987941;28;20129;-63
2021/10/13 06:33:37;;;;;;;5.68;1.30;;;;;;;18.28;30.44;100512.19;4981067;28;20078;-62
2021/10/13 06:36:05;;;;;;;1.95;1.10;;;;;;;18.24;30.06;100512.84;4984413;28;20060;-62
2021/10/13 06:38:33;;;;;;;2.22;1.17;;;;;;;18.19;30.46;100504.56;4985008;28;20550;-62
2021/10/13 06:41:02;;;;;;;3.28;1.42;;;;;;;18.23;30.53;100516.84;4989858;28;20046;-63
2021/10/13 06:43:28;;;;;;;2.25;1.50;;;;;;;18.21;30.29;100509.88;4992680;28;20137;-62
2021/10/13 06:45:55;;;;;;;1.75;1.00;;;;;;;18.24;30.64;100526.16;4982109;28;20085;-62
2021/10/13 06:48:22;;;;;;;3.03;1.48;;;;;;;18.19;30.40;100534.81;4987822;28;20042;-64
2021/10/13 06:50:50;;;;;;;5.10;1.92;;;;;;;18.11;30.32;100510.19;4989230;28;20125;-63
2021/10/13 06:53:17;;;;;;;2.45;1.27;;;;;;;18.13;30.33;100522.84;4993658;28;20164;-63
2021/10/13 06:55:45;;;;;;;3.38;0.98;;;;;;;18.17;30.36;100529.50;4984189;28;20133;-63
2021/10/13 06:58:13;;;;;;;3.80;1.50;;;;;;;18.10;30.28;100508.53;4982739;28;20137;-62
2021/10/13 07:00:40;;;;;;;4.93;1.15;;;;;;;18.17;30.10;100534.31;4983377;28;20081;-63
2021/10/13 07:03:07;;;;;;;2.95;1.33;;;;;;;18.00;30.09;100504.06;4992191;28;20050;-63
2021/10/13 07:05:36;;;;;;;3.95;1.60;;;;;;;18.15;29.79;100502.72;4993526;28;20108;-63
2021/10/13 07:08:04;;;;;;;2.47;1.35;;;;;;;18.38;29.71;100545.78;4977871;28;20125;-63
2021/10/13 07:10:31;;;;;;;2.78;1.13;;;;;;;18.53;29.84;100544.41;4976455;28;20486;-63
2021/10/13 07:12:58;;;;;;;1.90;1.27;;;;;;;18.66;29.50;100549.91;4992992;28;20125;-63
2021/10/13 07:15:25;;;;;;;2.70;1.40;;;;;;;18.65;29.45;100548.25;4987050;28;20106;-62
2021/10/13 07:17:52;;;;;;;2.42;1.42;;;;;;;18.77;29.11;100550.44;4991830;28;20079;-62
2021/10/13 07:20:20;;;;;;;3.05;1.88;;;;;;;18.79;29.07;100555.75;4990021;28;20050;-62
2021/10/13 07:22:47;;;;;;;6.88;1.38;;;;;;;18.91;29.05;100553.88;4993170;28;20133;-62
2021/10/13 07:25:19;;;;;;;2.90;1.15;;;;;;;19.02;29.07;100540.19;4987273;28;20081;-62
2021/10/13 07:27:46;;;;;;;3.83;1.42;;;;;;;19.38;28.53;100558.69;4988032;28;20082;-62
2021/10/13 07:30:17;;;;;;;3.63;1.50;;;;;;;19.60;28.58;100558.44;4980356;28;20200;-62
2021/10/13 07:32:44;;;;;;;6.18;1.42;;;;;;;19.59;28.04;100550.28;4973631;28;20137;-63
2021/10/13 07:35:20;;;;;;;2.55;1.48;;;;;;;19.95;28.07;100551.75;4984808;28;20173;-63
2021/10/13 07:37:47;;;;;;;3.75;1.45;;;;;;;20.01;28.13;100545.53;4987395;28;20038;-63
2021/10/13 07:40:14;;;;;;;2.75;1.15;;;;;;;20.13;27.94;100565.44;4988237;28;20042;-63
2021/10/13 07:42:42;;;;;;;3.75;2.05;;;;;;;20.17;27.66;100547.75;4985029;28;20081;-63
2021/10/13 07:45:09;;;;;;;6.38;2.80;;;;;;;20.29;27.49;100543.00;4991835;28;20052;-63
2021/10/13 07:47:36;;;;;;;7.45;1.60;;;;;;;20.68;27.42;100552.16;4993068;28;20082;-63
2021/10/13 07:50:05;;;;;;;4.30;2.20;;;;;;;20.56;27.02;100524.59;4975037;28;20078;-63
2021/10/13 07:52:31;;;;;;;2.22;1.65;;;;;;;21.03;27.14;100581.03;4991862;28;20209;-63
2021/10/13 07:54:58;;;;;;;6.97;1.52;;;;;;;21.17;26.58;100579.91;4983597;28;20133;-63
2021/10/13 07:57:25;;;;;;;1.98;1.05;;;;;;;21.28;26.47;100581.09;4992713;28;20085;-63
2021/10/13 07:59:52;;;;;;;2.15;1.27;;;;;;;21.34;26.38;100570.34;4985953;28;20133;-63
2021/10/13 08:02:19;;;;;;;2.45;1.30;;;;;;;21.48;25.51;100579.38;4981564;28;20125;-63
2021/10/13 08:04:46;;;;;;;3.35;1.50;;;;;;;21.67;25.70;100581.63;4983434;28;20093;-63
2021/10/13 08:07:13;;;;;;;3.22;1.70;;;;;;;22.06;25.42;100588.59;4978819;28;20059;-63
2021/10/13 08:09:40;;;;;;;2.67;1.58;;;;;;;22.18;24.96;100582.91;4989390;28;20141;-62
2021/10/13 08:12:07;;;;;;;2.20;1.52;;;;;;;22.43;24.87;100595.06;4981739;28;20085;-62
2021/10/13 08:14:33;;;;;;;3.65;1.60;;;;;;;22.41;24.17;100588.91;4992613;28;20074;-62
2021/10/13 08:17:02;;;;;;;2.75;1.98;;;;;;;22.48;24.40;100591.97;4982555;28;20138;-62
2021/10/13 08:19:29;;;;;;;5.38;1.85;;;;;;;22.56;23.85;100595.00;4984406;28;20074;-63
2021/10/13 08:21:56;;;;;;;3.95;2.00;;;;;;;22.63;24.16;100583.84;4988346;28;20060;-64
2021/10/13 08:24:23;;;;;;;5.80;1.45;;;;;;;22.99;23.33;100599.16;4988909;28;20051;-63
2021/10/13 08:26:50;;;;;;;2.33;1.50;;;;;;;23.11;23.10;100587.69;4980596;28;20129;-63
2021/10/13 08:29:17;;;;;;;1.58;1.30;;;;;;;23.38;23.22;100598.22;4982737;28;20054;-64
2021/10/13 08:31:44;;;;;;;6.03;1.70;;;;;;;23.78;22.91;100597.22;4975267;28;20075;-64
2021/10/13 08:34:10;;;;;;;2.05;1.38;;;;;;;24.13;22.11;100602.13;4973442;28;20098;-64
2021/10/13 08:36:37;;;;;;;4.18;1.77;;;;;;;24.46;22.02;100601.69;4981164;28;20089;-64
2021/10/13 08:39:04;;;;;;;4.20;1.52;;;;;;;25.25;21.71;100586.19;4987811;28;20145;-63
2021/10/13 08:41:31;;;;;;;4.07;1.63;;;;;;;26.04;21.50;100587.56;4991812;28;20405;-63
2021/10/13 08:43:58;;;;;;;4.55;1.90;;;;;;;26.69;21.50;100573.78;4988821;28;20074;-63
2021/10/13 08:46:25;;;;;;;7.05;2.13;;;;;;;27.28;20.78;100588.44;4989156;28;20501;-63
2021/10/13 08:48:52;;;;;;;5.57;1.52;;;;;;;27.13;19.46;100575.16;4991481;28;20046;-63
2021/10/13 08:51:19;;;;;;;3.90;1.67;;;;;;;27.23;19.49;100582.22;4989588;28;20132;-64
2021/10/13 08:53:46;;;;;;;4.63;1.50;;;;;;;27.54;19.16;100590.31;4985579;28;20097;-63
2021/10/13 08:56:13;;;;;;;3.92;1.70;;;;;;;27.75;19.30;100574.50;4987955;28;20078;-62
2021/10/13 08:58:41;;;;;;;3.88;1.52;;;;;;;27.83;18.76;100579.13;4994096;28;20101;-63
2021/10/13 09:01:13;;;;;;;2.40;1.67;;;;;;;27.82;18.82;100581.13;4982383;28;20101;-63
2021/10/13 09:03:42;;;;;;;3.33;1.80;;;;;;;28.17;19.12;100576.06;4988353;28;20295;-63
2021/10/13 09:06:22;;;;;;;;;;;;;;;28.18;18.49;100583.47;4985551;28;20059;-64
2021/10/13 09:08:58;;;;;;;4.55;1.80;;;;;;;28.61;18.57;100577.97;4991573;28;20028;-66
2021/10/13 09:11:36;;;;;;;2.55;1.60;;;;;;;28.26;18.41;100577.34;4986427;28;20134;-65
2021/10/13 09:14:24;;;;;;;4.32;1.50;;;;;;;28.43;19.04;100575.03;4995479;28;20050;-65
2021/10/13 09:17:01;;;;;;;3.40;1.53;;;;;;;27.83;17.46;100576.25;4992146;28;20078;-64
2021/10/13 09:19:28;;;;;;;3.95;1.70;;;;;;;27.65;17.21;100579.75;4994616;28;20280;-65
2021/10/13 09:21:59;;;;;;;5.45;1.60;;;;;;;27.62;17.11;100583.44;4993846;28;20577;-64
2021/10/13 09:24:29;;;;;;;2.33;1.60;;;;;;;27.76;17.50;100579.03;4976013;28;20134;-64
2021/10/13 09:27:15;;;;;;;5.18;1.90;;;;;;;27.81;17.24;100572.94;4975958;28;20191;-65
2021/10/13 09:29:46;;;;;;;8.05;1.67;;;;;;;28.08;17.63;100565.75;4994451;28;20081;-65
2021/10/13 09:32:13;;;;;;;6.05;1.88;;;;;;;28.15;17.27;100575.66;4995351;28;20545;-65
2021/10/13 09:34:47;;;;;;;2.78;0.95;;;;;;;28.09;17.56;100580.94;4983637;28;20129;-64
2021/10/13 09:37:14;;;;;;;5.72;2.33;;;;;;;28.26;17.45;100585.16;4982268;28;20055;-65
2021/10/13 09:39:55;;;;;;;1.92;1.63;;;;;;;28.16;17.16;100565.81;4974408;28;20093;-65
2021/10/13 09:42:22;;;;;;;1.65;1.15;;;;;;;28.19;17.46;100590.84;4990112;28;20550;-65
2021/10/13 09:45:00;;;;;;;4.50;1.38;;;;;;;28.29;17.21;100565.06;4983180;28;20126;-77
2021/10/13 09:47:35;;;;;;;4.68;1.92;;;;;;;28.46;17.13;100577.09;4992270;28;20129;-78
2021/10/13 09:50:12;;;;;;;2.97;1.27;;;;;;;28.05;16.50;100568.63;4994747;28;20317;-66
2021/10/13 09:52:40;;;;;;;3.80;1.65;;;;;;;28.15;17.09;100572.78;4993910;28;20125;-63
2021/10/13 09:55:10;;;;;;;3.28;1.30;;;;;;;28.33;16.99;100577.41;4991040;28;20047;-68
2021/10/13 09:57:45;;;;;;;2.72;1.50;;;;;;;28.28;16.65;100574.09;4975470;28;20090;-64
2021/10/13 10:00:20;;;;;;;3.25;1.65;;;;;;;28.30;16.94;100572.44;4977521;28;20121;-66
2021/10/13 10:02:54;;;;;;;2.42;1.58;;;;;;;28.23;16.49;100574.47;4985616;28;20085;-70
2021/10/13 10:05:41;;;;;;;3.15;1.83;;;;;;;28.10;16.45;100577.69;5003521;28;20048;-67
2021/10/13 10:08:10;;;;;;;2.50;1.85;;;;;;;28.66;16.78;100603.47;4992666;28;20150;-69
2021/10/13 10:10:58;;;;;;;3.65;1.80;;;;;;;29.11;16.74;100578.19;4994610;28;20085;-66
2021/10/13 10:13:35;;;;;;;3.22;1.60;;;;;;;29.69;17.18;100614.47;4994817;28;20054;-66
2021/10/13 10:16:03;;;;;;;4.07;1.70;;;;;;;29.50;16.50;100593.47;4981660;28;20057;-64
2021/10/13 10:18:35;;;;;;;4.93;2.05;;;;;;;29.91;16.23;100598.84;4975562;28;20050;-65
2021/10/13 10:21:22;;;;;;;1.90;1.23;;;;;;;30.13;16.61;100593.09;4982708;28;20051;-62
2021/10/13 10:23:54;;;;;;;7.10;1.52;;;;;;;30.08;17.44;100574.16;4985000;28;20046;-62
2021/10/13 10:26:24;;;;;;;6.13;1.88;;;;;;;29.87;16.95;100598.03;4993228;28;20133;-62
2021/10/13 10:28:50;;;;;;;2.05;1.40;;;;;;;29.68;15.97;100607.91;4974832;28;20089;-61
2021/10/13 10:31:26;;;;;;;6.20;1.70;;;;;;;29.88;16.39;100593.94;4974993;28;20454;-62
2021/10/13 10:34:04;;;;;;;2.88;1.70;;;;;;;29.59;16.54;100607.47;4991051;28;20050;-63
2021/10/13 10:36:51;;;;;;;1.60;1.20;;;;;;;29.50;16.71;100605.00;4994026;28;20121;-65
2021/10/13 10:39:19;;;;;;;3.80;1.70;;;;;;;30.04;16.35;100602.13;4981409;28;20051;-66
2021/10/13 10:41:49;;;;;;;3.35;1.85;;;;;;;30.79;16.35;100607.75;4990444;28;20086;-66
2021/10/13 10:44:41;;;;;;;4.03;1.50;;;;;;;30.61;16.30;100589.69;4974831;28;20457;-67
2021/10/13 10:47:10;;;;;;;2.65;1.50;;;;;;;30.63;16.21;100605.34;4982509;28;20535;-67
2021/10/13 10:49:43;;;;;;;4.47;2.30;;;;;;;30.10;16.28;100605.44;4974141;28;20050;-67
2021/10/13 10:52:10;;;;;;;3.30;1.80;;;;;;;29.74;16.08;100608.31;4974925;28;20462;-70
2021/10/13 10:54:37;;;;;;;1.60;1.30;;;;;;;29.71;16.45;100615.72;4980362;28;20150;-71
2021/10/13 10:57:30;;;;;;;2.50;1.60;;;;;;;29.96;16.60;100595.56;4992781;28;20528;-70
2021/10/13 10:59:58;;;;;;;15.35;1.83;;;;;;;29.76;15.36;100585.69;4990939;28;20089;-61
2021/10/13 11:02:25;;;;;;;2.67;1.65;;;;;;;29.86;15.84;100584.88;4974459;28;20078;-63
2021/10/13 11:05:08;;;;;;;4.82;1.75;;;;;;;30.07;15.82;100600.50;4974275;28;20126;-61
2021/10/13 11:07:37;;;;;;;2.42;1.58;;;;;;;30.27;15.18;100598.84;4991809;28;20093;-64
2021/10/13 11:10:06;;;;;;;2.05;1.48;;;;;;;29.96;15.54;100601.31;4985981;28;20473;-63
2021/10/13 11:12:53;;;;;;;2.78;2.00;;;;;;;30.01;15.70;100610.78;4991211;28;20129;-65
2021/10/13 11:15:25;;;;;;;2.05;1.83;;;;;;;30.55;14.94;100600.81;4993176;28;20082;-66
2021/10/13 11:17:53;;;;;;;3.55;1.80;;;;;;;31.01;15.42;100601.91;4990863;28;20046;-64
2021/10/13 11:20:23;;;;;;;2.22;1.65;;;;;;;30.95;15.32;100601.53;4980323;28;20475;-67
2021/10/13 11:23:01;;;;;;;2.33;1.50;;;;;;;30.58;15.19;100593.41;4979743;28;20521;-67
2021/10/13 11:25:29;;;;;;;3.03;1.67;;;;;;;30.61;15.42;100616.44;4983257;28;20078;-67
2021/10/13 11:27:58;;;;;;;2.20;1.77;;;;;;;31.06;15.41;100599.41;4992102;28;20126;-67
2021/10/13 11:30:28;;;;;;;3.10;1.63;;;;;;;31.39;15.01;100594.31;4984031;28;20074;-66
2021/10/13 11:32:56;;;;;;;3.88;2.25;;;;;;;31.54;15.01;100600.78;4982935;28;20086;-65
2021/10/13 11:35:23;;;;;;;2.10;1.60;;;;;;;31.72;14.00;100604.34;4973014;28;20137;-63
2021/10/13 11:37:52;;;;;;;2.00;1.80;;;;;;;31.85;13.77;100602.59;4987392;28;20097;-66